Time,TemperatureF,DewpointF,PressureIn,WindDirection,WindDirectionDegrees,WindSpeedMPH,WindSpeedGustMPH,Humidity,HourlyPrecipIn,Conditions,Clouds,dailyrainin,SoftwareType,DateUTC
2013-09-14 00:04:00,75.0,75.0,29.83,North,0,0.0,-999.0,100,0.00,,,-99.99,,2013-09-14 04:04:00,
2013-09-14 00:54:00,73.0,73.0,29.81,North,0,0.0,-999.0,100,0.00,,,-99.99,,2013-09-14 04:54:00,
2013-09-14 01:03:00,73.0,73.0,29.81,North,0,0.0,-999.0,100,0.00,,,-99.99,,2013-09-14 05:03:00,
2013-09-14 01:52:00,73.0,64.0,29.82,NNE,20,8.0,-999.0,73,0.00,,,-99.99,,2013-09-14 05:52:00,
2013-09-14 02:02:00,73.0,64.0,29.82,NNE,20,8.0,-999.0,73,0.00,,,-99.99,,2013-09-14 06:02:00,
2013-09-14 02:52:00,72.0,63.0,29.84,North,360,8.0,-999.0,73,0.00,,,-99.99,,2013-09-14 06:52:00,
2013-09-14 03:02:00,72.0,63.0,29.84,North,360,8.0,-999.0,73,0.00,,,-99.99,,2013-09-14 07:02:00,
2013-09-14 03:52:00,72.0,63.0,29.84,North,10,10.0,-999.0,73,0.00,,,-99.99,,2013-09-14 07:52:00,
2013-09-14 04:02:00,72.0,63.0,29.84,North,10,10.0,-999.0,73,0.00,,,-99.99,,2013-09-14 08:02:00,
2013-09-14 04:52:00,70.0,63.0,29.84,North,10,12.0,16.0,77,0.00,,,-99.99,,2013-09-14 08:52:00,
2013-09-14 05:02:00,70.0,63.0,29.84,North,10,12.0,16.0,77,0.00,,,-99.99,,2013-09-14 09:02:00,
2013-09-14 05:53:00,68.0,63.0,29.86,NNE,30,7.0,-999.0,82,0.00,,,-99.99,,2013-09-14 09:53:00,
2013-09-14 06:03:00,68.0,63.0,29.86,NNE,30,7.0,-999.0,82,0.00,,,-99.99,,2013-09-14 10:03:00,
2013-09-14 06:52:00,68.0,64.0,29.88,NNE,20,7.0,-999.0,88,0.00,,,-99.99,,2013-09-14 10:52:00,
2013-09-14 07:02:00,68.0,64.0,29.88,NNE,20,7.0,-999.0,88,0.00,,,-99.99,,2013-09-14 11:02:00,
2013-09-14 07:52:00,68.0,64.0,29.90,North,0,0.0,-999.0,88,0.00,,,-99.99,,2013-09-14 11:52:00,
2013-09-14 08:01:00,68.0,64.0,29.90,North,0,0.0,-999.0,88,0.00,,,-99.99,,2013-09-14 12:01:00,
2013-09-14 08:52:00,72.0,66.0,29.93,NNE,30,8.0,-999.0,83,0.00,,,0.00,,2013-09-14 12:52:00,
2013-09-14 09:01:00,72.0,66.0,29.93,NNE,30,8.0,-999.0,83,0.00,,,0.00,,2013-09-14 13:01:00,
2013-09-14 09:52:00,75.0,66.0,29.94,NNE,30,10.0,-999.0,73,0.00,,,-99.99,,2013-09-14 13:52:00,
2013-09-14 10:02:00,75.0,66.0,29.94,NNE,30,10.0,-999.0,73,0.00,,,-99.99,,2013-09-14 14:02:00,
2013-09-14 10:52:00,79.0,70.0,29.96,NE,50,9.0,-999.0,73,0.00,,,-99.99,,2013-09-14 14:52:00,
2013-09-14 11:02:00,79.0,70.0,29.96,NE,50,9.0,-999.0,73,0.00,,,-99.99,,2013-09-14 15:02:00,
2013-09-14 11:53:00,81.0,70.0,29.97,ENE,60,9.0,-999.0,69,0.00,,,-99.99,,2013-09-14 15:53:00,
2013-09-14 12:03:00,81.0,70.0,29.97,ENE,60,9.0,-999.0,69,0.00,,,-99.99,,2013-09-14 16:03:00,
2013-09-14 12:54:00,81.0,70.0,29.98,ENE,70,12.0,-999.0,69,0.00,,,-99.99,,2013-09-14 16:54:00,
2013-09-14 13:03:00,81.0,70.0,29.98,ENE,70,12.0,-999.0,69,0.00,,,-99.99,,2013-09-14 17:03:00,
2013-09-14 13:53:00,79.0,68.0,30.00,ENE,60,10.0,-999.0,69,0.00,,,-99.99,,2013-09-14 17:53:00,
2013-09-14 14:02:00,79.0,68.0,30.00,ENE,60,10.0,-999.0,69,0.00,,,-99.99,,2013-09-14 18:02:00,
2013-09-14 14:52:00,81.0,70.0,30.00,East,80,9.0,-999.0,69,0.00,,,-99.99,,2013-09-14 18:52:00,
2013-09-14 15:01:00,81.0,70.0,30.00,East,80,9.0,-999.0,69,0.00,,,-99.99,,2013-09-14 19:01:00,
2013-09-14 15:52:00,81.0,70.0,29.98,ESE,110,9.0,-999.0,69,0.00,,,-99.99,,2013-09-14 19:52:00,
2013-09-14 16:02:00,81.0,70.0,29.98,ESE,110,9.0,-999.0,69,0.00,,,-99.99,,2013-09-14 20:02:00,
2013-09-14 16:52:00,81.0,68.0,29.98,East,90,9.0,-999.0,65,0.00,,,-99.99,,2013-09-14 20:52:00,
2013-09-14 17:02:00,81.0,68.0,29.98,East,90,9.0,-999.0,65,0.00,,,-99.99,,2013-09-14 21:02:00,
2013-09-14 17:54:00,81.0,68.0,29.99,ENE,70,8.0,-999.0,65,0.00,,,-99.99,,2013-09-14 21:54:00,
2013-09-14 18:04:00,81.0,68.0,29.99,ENE,70,8.0,-999.0,65,0.00,,,-99.99,,2013-09-14 22:04:00,
2013-09-14 18:53:00,77.0,70.0,30.01,East,100,8.0,-999.0,78,0.00,,,-99.99,,2013-09-14 22:53:00,
2013-09-14 19:02:00,77.0,70.0,30.01,East,100,8.0,-999.0,78,0.00,,,-99.99,,2013-09-14 23:02:00,
2013-09-14 19:52:00,75.0,70.0,30.03,East,80,7.0,-999.0,83,0.00,,,-99.99,,2013-09-14 23:52:00,
2013-09-14 20:02:00,75.0,70.0,30.03,East,80,7.0,-999.0,83,0.00,,,-99.99,,2013-09-15 00:02:00,
2013-09-14 20:53:00,75.0,70.0,30.05,East,90,8.0,-999.0,83,0.00,,,-99.99,,2013-09-15 00:53:00,
2013-09-14 21:01:00,75.0,70.0,30.05,East,90,8.0,-999.0,83,0.00,,,-99.99,,2013-09-15 01:01:00,
2013-09-14 21:52:00,75.0,70.0,30.07,East,80,7.0,-999.0,83,0.00,,,-99.99,,2013-09-15 01:52:00,
2013-09-14 22:02:00,75.0,70.0,30.07,East,80,7.0,-999.0,83,0.00,,,-99.99,,2013-09-15 02:02:00,
2013-09-14 22:52:00,75.0,70.0,30.08,East,80,5.0,-999.0,83,0.00,,,-99.99,,2013-09-15 02:52:00,
2013-09-14 23:02:00,75.0,70.0,30.08,East,80,5.0,-999.0,83,0.00,,,-99.99,,2013-09-15 03:02:00,
2013-09-14 23:55:00,75.0,70.0,30.08,North,360,5.0,-999.0,83,0.00,,,-99.99,,2013-09-15 03:55:00,